Nearby METAR Reports

 

YBUD - Bundaberg, Australia
Distance from station: SSW 6km
Updated: 24/10/2021 10:00
Clear
Clear
 Wind from SW
Wind: SW 13 km/h
Temperature: 32°C
Dew Point: 12°C
Humidity: 29%
Barometer: 1014 hPa
Clouds: Clear
Visibility: 10 km
2021/10/24 00:00 YBUD 240000Z AUTO 22007KT 170V240 9999 // NCD 32/12 Q1014
YGLA - Gladstone, Australia
Distance from station: NW 159km
Updated: 24/10/2021 10:30
Clear
Clear
 Wind from N
Wind: N 9 km/h
Temperature: 29°C
Heat Index: 30°C
Dew Point: 19°C
Humidity: 55%
Barometer: 1015 hPa
Clouds: Clear
Visibility: 10 km
2021/10/24 00:30 YGLA 240030Z AUTO 36005KT 330V030 9999 // NCD 29/19 Q1015 RF00.0/000.0
YBRK - Rockhampton Airp, Australia
Distance from station: NW 252km
Updated: 24/10/2021 10:30
Clear
Clear
 Wind from NNE
Wind: NNE 11 km/h
Temperature: 31°C
Heat Index: 34°C
Dew Point: 21°C
Humidity: 55%
Barometer: 1015 hPa
Clouds: Clear
Visibility: 10 km
2021/10/24 00:30 YBRK 240030Z AUTO 03006KT 360V060 9999 // NCD 31/21 Q1015 RF00.0/000.0
 
YBBN - Brisbane Intl Ar, Australia
Distance from station: SSE 292km
Updated: 24/10/2021 10:30
Clear
Clear
 Wind from WNW
Wind: WNW 30 km/h
Temperature: 32°C
Dew Point: 10°C
Humidity: 26%
Barometer: 1012 hPa
Summary: Clear
Visibility: greater than 10 km
2021/10/24 00:30 YBBN 240030Z 29016KT CAVOK 32/10 Q1012
YAMB - Amberley, Australia
Distance from station: S 312km
Updated: 24/10/2021 10:30
Clear
Clear
 Wind from W
Wind: W 30 km/h
Temperature: 29°C
Dew Point: 13°C
Humidity: 37%
Barometer: 1012 hPa
Clouds: Clear
Visibility: 10 km
2021/10/24 00:30 YAMB 240030Z AUTO 28016KT 9999 // NCD 29/13 Q1012
YBCG - Coolangatta Aws, Australia
Distance from station: SSE 386km
Updated: 24/10/2021 10:30
Clear
Clear
 Wind from S
Wind: S 15 km/h
Temperature: 32°C
Dew Point: 12°C
Humidity: 29%
Barometer: 1011 hPa
Clouds: Clear
Visibility: 10 km
2021/10/24 00:30 YBCG 240030Z AUTO 19008KT 9999 // NCD 32/12 Q1011 RF00.0/000.0